createdAt,value
2022-09-12T00:01:34.330Z,15.05
2022-09-12T00:04:03.753Z,15.03
2022-09-12T00:06:35.921Z,15.08
2022-09-12T00:09:08.345Z,15.06
2022-09-12T00:11:39.146Z,15.03
2022-09-12T00:14:09.899Z,15.01
2022-09-12T00:16:39.775Z,14.99
2022-09-12T00:19:09.886Z,14.99
2022-09-12T00:21:40.768Z,14.93
2022-09-12T00:24:11.529Z,14.94
2022-09-12T00:26:40.928Z,14.91
2022-09-12T00:29:11.117Z,14.91
2022-09-12T00:31:40.507Z,14.88
2022-09-12T00:34:10.917Z,14.86
2022-09-12T00:36:40.609Z,14.83
2022-09-12T00:39:11.565Z,14.79
2022-09-12T00:41:41.448Z,14.76
2022-09-12T00:44:25.861Z,14.78
2022-09-12T00:47:02.076Z,14.73
2022-09-12T00:49:34.026Z,14.73
2022-09-12T00:52:11.807Z,14.70
2022-09-12T00:54:44.369Z,14.69
2022-09-12T00:57:13.192Z,14.69
2022-09-12T00:59:51.039Z,14.71
2022-09-12T01:02:20.323Z,14.68
2022-09-12T01:04:49.594Z,14.68
2022-09-12T01:07:18.989Z,14.68
2022-09-12T01:09:48.439Z,14.69
2022-09-12T01:12:18.574Z,14.65
2022-09-12T01:14:47.799Z,14.64
2022-09-12T01:17:17.461Z,14.62
2022-09-12T01:20:17.046Z,14.58
2022-09-12T01:23:06.004Z,14.54
2022-09-12T01:26:05.757Z,14.52
2022-09-12T01:28:47.042Z,14.58
2022-09-12T01:31:22.204Z,14.60
2022-09-12T01:34:18.270Z,14.52
2022-09-12T01:36:53.809Z,14.49
2022-09-12T01:39:40.841Z,14.47
2022-09-12T01:42:25.317Z,14.49
2022-09-12T01:45:17.323Z,14.43
2022-09-12T01:48:00.231Z,14.44
2022-09-12T01:50:29.367Z,14.41
2022-09-12T01:53:08.105Z,14.44
2022-09-12T01:55:52.445Z,14.36
2022-09-12T01:58:30.507Z,14.36
2022-09-12T02:01:11.604Z,14.36
2022-09-12T02:03:44.522Z,14.31
2022-09-12T02:06:20.086Z,14.29
2022-09-12T02:08:54.505Z,14.28
2022-09-12T02:11:23.952Z,14.28
2022-09-12T02:14:00.526Z,14.28
2022-09-12T02:16:38.430Z,14.25
2022-09-12T02:19:19.357Z,14.24
2022-09-12T02:22:02.799Z,14.20
2022-09-12T02:24:35.472Z,14.21
2022-09-12T02:27:08.642Z,14.24
2022-09-12T02:29:37.282Z,14.24
2022-09-12T02:32:12.091Z,14.27
2022-09-12T02:34:48.773Z,14.27
2022-09-12T02:37:46.877Z,14.23
2022-09-12T02:40:16.328Z,14.25
2022-09-12T02:42:45.655Z,14.30
2022-09-12T02:45:15.124Z,14.30
2022-09-12T02:47:50.110Z,14.31
2022-09-12T02:50:20.377Z,14.33
2022-09-12T02:52:49.689Z,14.35
2022-09-12T02:55:19.249Z,14.39
2022-09-12T02:57:48.482Z,14.41
2022-09-12T03:00:17.974Z,14.44
2022-09-12T03:03:23.670Z,14.43
2022-09-12T03:06:00.503Z,14.43
2022-09-12T03:08:48.228Z,14.42
2022-09-12T03:11:29.957Z,14.43
2022-09-12T03:14:11.103Z,14.39
2022-09-12T03:16:49.767Z,14.42
2022-09-12T03:19:24.790Z,14.45
2022-09-12T03:22:12.207Z,14.44
2022-09-12T03:24:50.412Z,14.41
2022-09-12T03:27:34.549Z,14.43
2022-09-12T03:30:06.199Z,14.46
2022-09-12T03:32:46.576Z,14.46
2022-09-12T03:35:22.228Z,14.46
2022-09-12T03:37:49.984Z,14.47
2022-09-12T03:40:19.567Z,14.47
2022-09-12T03:42:48.861Z,14.46
2022-09-12T03:45:18.270Z,14.42
2022-09-12T03:47:47.490Z,14.41
2022-09-12T03:50:17.290Z,14.42
2022-09-12T03:52:46.508Z,14.39
2022-09-12T03:55:15.995Z,14.37
2022-09-12T03:57:45.512Z,14.32
2022-09-12T04:00:19.571Z,14.27
2022-09-12T04:02:45.929Z,14.27
2022-09-12T04:05:15.265Z,14.24
2022-09-12T04:07:44.500Z,14.18
2022-09-12T04:10:16.232Z,14.14
2022-09-12T04:12:44.879Z,14.14
2022-09-12T04:15:14.238Z,14.16
2022-09-12T04:17:43.456Z,14.13
2022-09-12T04:20:12.709Z,14.17
2022-09-12T04:22:41.920Z,14.15
2022-09-12T04:25:11.915Z,14.14
2022-09-12T04:27:41.575Z,14.14
2022-09-12T04:30:11.290Z,14.14
2022-09-12T04:32:41.415Z,14.11
2022-09-12T04:35:12.335Z,14.16
2022-09-12T04:37:41.624Z,14.15
2022-09-12T04:40:11.337Z,14.15
2022-09-12T04:42:40.503Z,14.18
2022-09-12T04:45:10.126Z,14.13
2022-09-12T04:47:39.346Z,14.13
2022-09-12T04:50:10.234Z,14.14
2022-09-12T04:52:39.490Z,14.10
2022-09-12T04:55:10.573Z,14.13
2022-09-12T04:57:39.798Z,14.13
2022-09-12T05:00:11.951Z,14.11
2022-09-12T05:02:42.198Z,14.11
2022-09-12T05:05:12.238Z,14.08
2022-09-12T05:07:41.468Z,14.09
2022-09-12T05:10:12.050Z,14.08
2022-09-12T05:12:41.473Z,14.06
2022-09-12T05:15:11.842Z,14.07
2022-09-12T05:17:41.115Z,14.05
2022-09-12T05:20:12.266Z,14.04
2022-09-12T05:22:41.646Z,14.04
2022-09-12T05:25:11.271Z,14.01
2022-09-12T05:27:40.572Z,14.00
2022-09-12T05:30:11.331Z,13.97
2022-09-12T05:32:41.052Z,13.97
2022-09-12T05:35:11.133Z,13.93
2022-09-12T05:37:40.414Z,13.90
2022-09-12T05:40:10.586Z,13.88
2022-09-12T05:42:40.013Z,13.84
2022-09-12T05:45:09.744Z,13.84
2022-09-12T05:47:39.045Z,13.83
2022-09-12T05:50:10.356Z,13.80
2022-09-12T05:52:39.853Z,13.81
2022-09-12T05:55:09.560Z,13.83
2022-09-12T05:57:39.484Z,13.88
2022-09-12T06:00:10.111Z,13.90
2022-09-12T06:02:42.070Z,13.93
2022-09-12T06:05:11.551Z,13.92
2022-09-12T06:07:40.779Z,13.87
2022-09-12T06:10:12.028Z,13.91
2022-09-12T06:12:41.255Z,13.96
2022-09-12T06:15:11.921Z,14.00
2022-09-12T06:17:41.215Z,14.03
2022-09-12T06:20:10.928Z,14.06
2022-09-12T06:22:40.813Z,14.29
2022-09-12T06:25:10.203Z,14.58
2022-09-12T06:27:39.414Z,14.53
2022-09-12T06:30:09.238Z,14.52
2022-09-12T06:32:38.470Z,14.55
2022-09-12T06:35:08.348Z,14.62
2022-09-12T06:37:37.565Z,14.59
2022-09-12T06:40:08.630Z,14.68
2022-09-12T06:42:37.852Z,14.79
2022-09-12T06:45:07.743Z,14.74
2022-09-12T06:47:37.393Z,14.73
2022-09-12T06:50:07.617Z,14.70
2022-09-12T06:52:36.865Z,14.77
2022-09-12T06:55:06.526Z,14.86
2022-09-12T06:57:37.523Z,15.03
2022-09-12T07:00:07.839Z,15.03
2022-09-12T07:02:37.452Z,15.09
2022-09-12T07:05:08.367Z,15.18
2022-09-12T07:07:38.139Z,15.11
2022-09-12T07:10:08.209Z,15.19
2022-09-12T07:12:37.612Z,15.27
2022-09-12T07:15:07.268Z,15.32
2022-09-12T07:17:36.712Z,15.43
2022-09-12T07:20:08.108Z,15.62
2022-09-12T07:22:37.851Z,15.70
2022-09-12T07:25:09.281Z,15.79
2022-09-12T07:27:38.536Z,15.89
2022-09-12T07:30:08.509Z,16.02
2022-09-12T07:32:37.750Z,16.19
2022-09-12T07:35:07.625Z,16.37
2022-09-12T07:37:36.899Z,16.40
2022-09-12T07:40:06.522Z,16.33
2022-09-12T07:42:35.841Z,16.32
2022-09-12T07:45:05.486Z,16.55
2022-09-12T07:47:35.215Z,16.82
2022-09-12T07:50:05.805Z,16.88
2022-09-12T07:52:35.320Z,16.98
2022-09-12T07:55:05.082Z,16.73
2022-09-12T07:57:34.375Z,16.88
2022-09-12T08:00:03.895Z,17.00
2022-09-12T08:02:34.890Z,17.20
2022-09-12T08:05:04.187Z,17.38
2022-09-12T08:07:34.155Z,17.53
2022-09-12T08:10:03.521Z,17.58
2022-09-12T08:12:34.725Z,17.77
2022-09-12T08:15:04.003Z,18.02
2022-09-12T08:17:33.454Z,18.24
2022-09-12T08:20:02.847Z,18.34
2022-09-12T08:22:32.967Z,18.59
2022-09-12T08:25:02.320Z,18.77
2022-09-12T08:27:31.580Z,18.84
2022-09-12T08:30:00.913Z,18.88
2022-09-12T08:32:30.315Z,18.78
2022-09-12T08:34:59.592Z,18.98
2022-09-12T08:37:33.363Z,19.27
2022-09-12T08:40:02.842Z,19.28
2022-09-12T08:42:38.260Z,19.21
2022-09-12T08:45:10.656Z,19.49
2022-09-12T08:47:42.669Z,19.80
2022-09-12T08:50:15.823Z,20.08
2022-09-12T08:53:07.817Z,20.13
2022-09-12T08:55:39.674Z,20.25
2022-09-12T08:58:17.510Z,20.31
2022-09-12T09:01:05.001Z,20.58
2022-09-12T09:03:44.574Z,20.71
2022-09-12T09:06:35.019Z,20.86
2022-09-12T09:09:26.091Z,20.86
2022-09-12T09:11:58.484Z,20.77
2022-09-12T09:14:49.142Z,21.42
2022-09-12T09:17:48.281Z,21.26
2022-09-12T09:20:38.373Z,21.97
2022-09-12T09:23:15.311Z,22.19
2022-09-12T09:26:02.530Z,22.97
2022-09-12T09:28:51.054Z,23.35
2022-09-12T09:31:23.397Z,24.33
2022-09-12T09:33:57.586Z,25.70
2022-09-12T09:36:32.980Z,26.55
2022-09-12T09:39:14.647Z,27.46
2022-09-12T09:41:56.129Z,27.51
2022-09-12T09:44:25.409Z,27.67
2022-09-12T09:46:56.893Z,28.65
2022-09-12T09:49:31.394Z,28.11
2022-09-12T09:52:01.215Z,27.88
2022-09-12T09:54:45.752Z,26.46
2022-09-12T09:57:39.505Z,28.92
2022-09-12T10:00:27.630Z,29.57
2022-09-12T10:03:14.193Z,30.43
2022-09-12T10:05:52.031Z,29.87
2022-09-12T10:08:23.952Z,30.40
2022-09-12T10:11:01.998Z,31.35
2022-09-12T10:13:37.575Z,30.91
2022-09-12T10:16:10.208Z,29.27
2022-09-12T10:18:42.501Z,30.53
2022-09-12T10:21:20.678Z,28.86
2022-09-12T10:23:52.747Z,30.29
2022-09-12T10:26:22.147Z,29.29
2022-09-12T10:28:54.020Z,30.76
2022-09-12T10:31:31.834Z,30.15
2022-09-12T10:34:01.574Z,30.09
2022-09-12T10:36:39.034Z,30.87
2022-09-12T10:39:10.465Z,30.45
2022-09-12T10:41:40.903Z,30.04
2022-09-12T10:44:16.084Z,31.13
2022-09-12T10:46:45.344Z,30.54
2022-09-12T10:49:23.690Z,31.39
2022-09-12T10:51:55.112Z,30.99
2022-09-12T10:54:27.419Z,29.86
2022-09-12T10:57:11.818Z,28.87
2022-09-12T10:59:44.341Z,29.32
2022-09-12T11:02:29.420Z,30.59
2022-09-12T11:05:10.821Z,30.59
2022-09-12T11:07:43.340Z,29.87
2022-09-12T11:10:15.735Z,28.99
2022-09-12T11:13:04.811Z,28.99
2022-09-12T11:15:46.814Z,30.14
2022-09-12T11:18:25.619Z,29.33
2022-09-12T11:21:26.997Z,30.11
2022-09-12T11:24:08.251Z,30.09
2022-09-12T11:26:51.978Z,29.66
2022-09-12T11:29:24.480Z,30.12
2022-09-12T11:32:15.936Z,30.95
2022-09-12T11:35:06.282Z,31.15
2022-09-12T11:38:01.012Z,31.87
2022-09-12T11:40:36.262Z,30.96
2022-09-12T11:43:24.931Z,30.75
2022-09-12T11:45:54.678Z,29.53
2022-09-12T11:48:45.255Z,29.20
2022-09-12T11:51:20.511Z,29.06
2022-09-12T11:53:56.332Z,28.70
2022-09-12T11:56:29.589Z,28.28
2022-09-12T11:59:04.870Z,29.18
2022-09-12T12:01:41.978Z,29.63
2022-09-12T12:04:11.324Z,27.94
2022-09-12T12:07:04.528Z,27.41
2022-09-12T12:09:34.503Z,28.97
2022-09-12T12:12:06.820Z,29.02
2022-09-12T12:14:44.291Z,28.21
2022-09-12T12:17:22.253Z,28.13
2022-09-12T12:20:08.616Z,28.75
2022-09-12T12:22:37.187Z,29.35
2022-09-12T12:25:21.287Z,28.06
2022-09-12T12:27:51.549Z,27.95
2022-09-12T12:30:33.419Z,28.64
2022-09-12T12:33:14.653Z,28.89
2022-09-12T12:35:48.798Z,28.79
2022-09-12T12:38:36.126Z,28.81
2022-09-12T12:41:24.208Z,27.42
2022-09-12T12:43:56.425Z,28.22
2022-09-12T12:46:27.974Z,29.26
2022-09-12T12:49:12.098Z,29.43
2022-09-12T12:51:56.662Z,29.23
2022-09-12T12:54:43.832Z,27.94
2022-09-12T12:57:33.817Z,28.02
2022-09-12T13:00:09.814Z,27.36
2022-09-12T13:02:41.279Z,27.14
2022-09-12T13:05:25.749Z,27.77
2022-09-12T13:07:57.757Z,28.23
2022-09-12T13:10:28.832Z,28.01
2022-09-12T13:13:01.373Z,28.15
2022-09-12T13:15:40.318Z,28.20
2022-09-12T13:18:15.239Z,27.80
2022-09-12T13:21:10.032Z,27.14
2022-09-12T13:23:39.833Z,27.16
2022-09-12T13:26:15.448Z,26.91
2022-09-12T13:28:44.792Z,26.98
2022-09-12T13:31:25.410Z,27.07
2022-09-12T13:33:59.222Z,26.45
2022-09-12T13:36:55.221Z,26.99
2022-09-12T13:39:53.793Z,26.87
2022-09-12T13:42:38.093Z,27.26
2022-09-12T13:45:12.997Z,26.95
2022-09-12T13:47:47.067Z,27.27
2022-09-12T13:50:19.456Z,27.42
2022-09-12T13:52:51.938Z,26.99
2022-09-12T13:55:35.247Z,26.68
2022-09-12T13:58:07.078Z,26.89
2022-09-12T14:00:37.283Z,27.35
2022-09-12T14:03:39.642Z,27.24
2022-09-12T14:06:09.065Z,27.40
2022-09-12T14:08:41.606Z,27.12
2022-09-12T14:11:12.510Z,26.98
2022-09-12T14:13:41.912Z,25.95
2022-09-12T14:16:12.339Z,25.89
2022-09-12T14:18:43.889Z,26.35
2022-09-12T14:21:15.820Z,26.13
2022-09-12T14:23:48.669Z,26.09
2022-09-12T14:26:18.470Z,26.51
2022-09-12T14:28:48.449Z,26.67
2022-09-12T14:31:32.210Z,26.72
2022-09-12T14:34:13.481Z,26.58
2022-09-12T14:36:50.836Z,26.80
2022-09-12T14:39:38.223Z,26.82
2022-09-12T14:42:18.939Z,27.26
2022-09-12T14:45:01.881Z,26.97
2022-09-12T14:47:40.401Z,26.22
2022-09-12T14:50:21.884Z,26.41
2022-09-12T14:53:06.243Z,25.55
2022-09-12T14:55:38.027Z,25.92
2022-09-12T14:58:24.009Z,25.75
2022-09-12T15:00:58.209Z,25.65
2022-09-12T15:03:35.657Z,25.97
2022-09-12T15:06:08.166Z,25.94
2022-09-12T15:08:37.575Z,26.10
2022-09-12T15:11:08.040Z,26.02
2022-09-12T15:13:41.894Z,25.71
2022-09-12T15:16:12.708Z,25.71
2022-09-12T15:18:41.941Z,25.52
2022-09-12T15:21:16.985Z,25.52
2022-09-12T15:23:51.180Z,25.83
2022-09-12T15:26:23.306Z,26.15
2022-09-12T15:28:52.857Z,25.89
2022-09-12T15:31:26.993Z,25.79
2022-09-12T15:33:57.904Z,26.41
2022-09-12T15:36:28.766Z,26.76
2022-09-12T15:38:58.047Z,26.88
2022-09-12T15:41:36.458Z,26.64
2022-09-12T15:44:08.144Z,25.87
2022-09-12T15:46:37.449Z,25.85
2022-09-12T15:49:09.650Z,25.86
2022-09-12T15:51:38.148Z,25.37
2022-09-12T15:54:07.310Z,25.36
2022-09-12T15:56:36.510Z,25.67
2022-09-12T15:59:05.911Z,25.63
2022-09-12T16:01:35.156Z,25.43
2022-09-12T16:04:04.678Z,25.40
2022-09-12T16:06:37.204Z,25.44
2022-09-12T16:09:07.053Z,25.31
2022-09-12T16:11:36.331Z,24.95
2022-09-12T16:14:06.279Z,24.62
2022-09-12T16:16:35.733Z,24.29
2022-09-12T16:19:05.044Z,23.97
2022-09-12T16:21:34.247Z,23.93
2022-09-12T16:24:04.037Z,23.93
2022-09-12T16:26:33.655Z,23.89
2022-09-12T16:29:03.317Z,23.91
2022-09-12T16:31:32.738Z,23.91
2022-09-12T16:34:02.361Z,23.87
2022-09-12T16:36:31.563Z,23.71
2022-09-12T16:39:01.126Z,23.74
2022-09-12T16:41:30.509Z,23.72
2022-09-12T16:43:59.783Z,23.66
2022-09-12T16:46:29.791Z,23.63
2022-09-12T16:48:59.948Z,23.57
2022-09-12T16:51:35.968Z,23.47
2022-09-12T16:54:05.306Z,23.43
2022-09-12T16:56:34.520Z,23.36
2022-09-12T16:59:05.500Z,23.37
2022-09-12T17:01:36.619Z,23.33
2022-09-12T17:04:06.755Z,23.29
2022-09-12T17:06:40.742Z,23.27
2022-09-12T17:09:13.405Z,23.18
2022-09-12T17:11:42.675Z,23.13
2022-09-12T17:14:15.056Z,23.07
2022-09-12T17:16:51.685Z,22.93
2022-09-12T17:19:33.212Z,22.71
2022-09-12T17:22:02.413Z,22.52
2022-09-12T17:24:33.032Z,22.34
2022-09-12T17:27:02.327Z,22.22
2022-09-12T17:29:31.641Z,22.12
2022-09-12T17:32:00.859Z,22.13
2022-09-12T17:34:30.414Z,22.11
2022-09-12T17:36:59.700Z,22.12
2022-09-12T17:39:29.232Z,22.07
2022-09-12T17:42:00.132Z,22.08
2022-09-12T17:44:30.424Z,21.97
2022-09-12T17:46:59.727Z,21.72
2022-09-12T17:49:29.096Z,21.47
2022-09-12T17:51:58.301Z,21.37
2022-09-12T17:54:27.691Z,21.25
2022-09-12T17:56:56.978Z,21.15
2022-09-12T17:59:27.731Z,21.07
2022-09-12T18:02:15.601Z,20.97
2022-09-12T18:04:50.758Z,20.88
2022-09-12T18:07:22.337Z,20.73
2022-09-12T18:09:56.561Z,20.61
2022-09-12T18:12:27.900Z,20.47
2022-09-12T18:14:57.361Z,20.42
2022-09-12T18:17:28.538Z,20.38
2022-09-12T18:19:57.957Z,20.33
2022-09-12T18:22:27.295Z,20.26
2022-09-12T18:24:56.719Z,20.20
2022-09-12T18:27:32.408Z,20.16
2022-09-12T18:30:20.623Z,20.11
2022-09-12T18:32:33.119Z,20.01
2022-09-12T18:35:04.361Z,19.96
2022-09-12T18:37:36.545Z,19.91
2022-09-12T18:40:09.437Z,19.87
2022-09-12T18:42:40.336Z,19.79
2022-09-12T18:45:10.270Z,19.73
2022-09-12T18:47:42.331Z,19.69
2022-09-12T18:50:11.842Z,19.64
2022-09-12T18:52:41.195Z,19.53
2022-09-12T18:55:10.988Z,19.40
2022-09-12T18:57:42.099Z,19.32
2022-09-12T19:00:13.424Z,19.27
2022-09-12T19:02:42.771Z,19.24
2022-09-12T19:05:12.828Z,19.21
2022-09-12T19:07:42.062Z,19.22
2022-09-12T19:10:12.068Z,19.27
2022-09-12T19:12:41.318Z,19.30
2022-09-12T19:15:10.971Z,19.30
2022-09-12T19:17:40.179Z,19.32
2022-09-12T19:20:09.852Z,19.23
2022-09-12T19:22:39.218Z,19.18
2022-09-12T19:25:09.405Z,19.18
2022-09-12T19:27:38.675Z,19.19
2022-09-12T19:30:08.682Z,19.19
2022-09-12T19:32:37.896Z,19.08
2022-09-12T19:35:07.659Z,18.90
2022-09-12T19:37:36.935Z,18.80
2022-09-12T19:40:07.877Z,18.75
2022-09-12T19:42:37.179Z,18.77
2022-09-12T19:45:07.199Z,18.77
2022-09-12T19:47:36.577Z,18.49
2022-09-12T19:50:06.727Z,18.25
2022-09-12T19:52:36.242Z,18.21
2022-09-12T19:55:05.710Z,18.17
2022-09-12T19:57:35.123Z,18.17
2022-09-12T20:00:06.916Z,18.19
2022-09-12T20:02:36.412Z,18.23
2022-09-12T20:05:06.299Z,18.24
2022-09-12T20:07:35.684Z,18.22
2022-09-12T20:10:05.660Z,18.21
2022-09-12T20:12:34.975Z,18.17
2022-09-12T20:15:05.019Z,18.19
2022-09-12T20:17:34.606Z,18.20
2022-09-12T20:20:04.070Z,18.24
2022-09-12T20:22:37.964Z,18.37
2022-09-12T20:25:04.904Z,18.32
2022-09-12T20:27:34.312Z,18.17
2022-09-12T20:30:03.749Z,18.01
2022-09-12T20:32:33.208Z,17.92
2022-09-12T20:35:02.764Z,17.86
2022-09-12T20:37:32.084Z,17.86
2022-09-12T20:40:01.368Z,17.89
2022-09-12T20:42:31.231Z,17.91
2022-09-12T20:45:00.489Z,17.92
2022-09-12T20:47:31.419Z,17.96
2022-09-12T20:50:00.823Z,17.96
2022-09-12T20:52:30.200Z,17.96
2022-09-12T20:54:59.465Z,17.97
2022-09-12T20:57:28.870Z,17.91
2022-09-12T20:59:58.108Z,17.81
2022-09-12T21:02:29.281Z,17.64
2022-09-12T21:04:59.340Z,17.50
2022-09-12T21:07:28.796Z,17.44
2022-09-12T21:09:58.816Z,17.45
2022-09-12T21:12:31.496Z,17.44
2022-09-12T21:15:00.902Z,17.47
2022-09-12T21:17:30.239Z,17.53
2022-09-12T21:19:59.643Z,17.64
2022-09-12T21:22:29.118Z,17.76
2022-09-12T21:24:58.447Z,17.89
2022-09-12T21:27:27.930Z,18.00
2022-09-12T21:29:57.483Z,18.10
2022-09-12T21:32:28.746Z,17.91
2022-09-12T21:34:58.112Z,18.19
2022-09-12T21:37:27.728Z,18.22
2022-09-12T21:40:01.447Z,18.25
2022-09-12T21:42:31.760Z,18.30
2022-09-12T21:45:01.041Z,18.35
2022-09-12T21:47:30.334Z,18.38
2022-09-12T21:49:59.748Z,18.40
2022-09-12T21:52:29.065Z,18.44
2022-09-12T21:54:58.385Z,18.45
2022-09-12T21:57:27.706Z,18.48
2022-09-12T21:59:57.987Z,18.50
2022-09-12T22:02:29.384Z,18.38
2022-09-12T22:04:59.184Z,18.41
2022-09-12T22:07:29.321Z,18.49
2022-09-12T22:09:58.668Z,18.55
2022-09-12T22:12:30.902Z,18.59
2022-09-12T22:15:08.929Z,18.59
2022-09-12T22:17:31.201Z,18.57
2022-09-12T22:20:00.437Z,18.52
2022-09-12T22:22:47.696Z,18.51
2022-09-12T22:25:17.031Z,18.51
2022-09-12T22:27:46.455Z,18.52
2022-09-12T22:30:18.989Z,18.51
2022-09-12T22:32:49.874Z,18.50
2022-09-12T22:35:20.928Z,18.49
2022-09-12T22:37:50.251Z,18.47
2022-09-12T22:40:19.872Z,18.46
2022-09-12T22:42:50.946Z,18.41
2022-09-12T22:45:20.263Z,18.40
2022-09-12T22:47:49.717Z,18.39
2022-09-12T22:50:18.989Z,18.37
2022-09-12T22:52:48.355Z,18.37
2022-09-12T22:55:17.988Z,18.37
2022-09-12T22:57:49.212Z,18.35
2022-09-12T23:00:19.513Z,18.33
2022-09-12T23:02:48.864Z,18.30
2022-09-12T23:05:18.418Z,18.29
2022-09-12T23:07:47.646Z,18.28
2022-09-12T23:10:17.056Z,18.24
2022-09-12T23:12:46.266Z,18.22
2022-09-12T23:15:15.568Z,18.22
2022-09-12T23:17:44.887Z,18.23
2022-09-12T23:20:14.120Z,18.21
2022-09-12T23:22:43.525Z,18.23
2022-09-12T23:25:12.902Z,18.25
2022-09-12T23:27:43.447Z,18.27
2022-09-12T23:30:13.102Z,18.27
2022-09-12T23:32:42.362Z,18.28
2022-09-12T23:35:12.718Z,18.32
2022-09-12T23:37:42.134Z,18.32
2022-09-12T23:40:12.217Z,18.36
2022-09-12T23:42:41.562Z,18.34
2022-09-12T23:45:11.301Z,18.35
2022-09-12T23:47:40.648Z,18.35
2022-09-12T23:50:10.484Z,18.34
2022-09-12T23:52:39.854Z,18.34
2022-09-12T23:55:11.068Z,18.37
2022-09-12T23:57:40.376Z,18.36
